sensor_id;sensor_type;location;lat;lon;timestamp;pressure;altitude;pressure_sealevel;temperature;humidity
41862;BME280;27537;57.134;-2.136;2022-11-28T00:01:24;99788.06;;;10.40;100.00
41862;BME280;27537;57.134;-2.136;2022-11-28T00:03:52;99767.66;;;10.30;100.00
41862;BME280;27537;57.134;-2.136;2022-11-28T00:06:19;99790.06;;;10.35;100.00
41862;BME280;27537;57.134;-2.136;2022-11-28T00:08:46;99789.34;;;10.49;100.00
41862;BME280;27537;57.134;-2.136;2022-11-28T00:11:15;99801.69;;;10.47;100.00
41862;BME280;27537;57.134;-2.136;2022-11-28T00:13:43;99798.09;;;10.66;100.00
41862;BME280;27537;57.134;-2.136;2022-11-28T00:16:17;99770.00;;;10.36;100.00
41862;BME280;27537;57.134;-2.136;2022-11-28T00:18:48;99780.22;;;10.40;100.00
41862;BME280;27537;57.134;-2.136;2022-11-28T00:21:16;99775.59;;;10.45;100.00
41862;BME280;27537;57.134;-2.136;2022-11-28T00:23:44;99786.69;;;10.33;100.00
41862;BME280;27537;57.134;-2.136;2022-11-28T00:26:22;99781.22;;;10.38;100.00
41862;BME280;27537;57.134;-2.136;2022-11-28T00:28:49;99783.78;;;10.39;100.00
41862;BME280;27537;57.134;-2.136;2022-11-28T00:31:20;99785.69;;;10.36;100.00
41862;BME280;27537;57.134;-2.136;2022-11-28T00:33:47;99787.44;;;10.18;100.00
41862;BME280;27537;57.134;-2.136;2022-11-28T00:36:15;99792.59;;;10.19;100.00
41862;BME280;27537;57.134;-2.136;2022-11-28T00:38:42;99788.72;;;10.26;100.00
41862;BME280;27537;57.134;-2.136;2022-11-28T00:41:12;99792.22;;;10.27;100.00
41862;BME280;27537;57.134;-2.136;2022-11-28T00:43:43;99797.75;;;10.21;100.00
41862;BME280;27537;57.134;-2.136;2022-11-28T00:46:11;99765.75;;;10.16;100.00
41862;BME280;27537;57.134;-2.136;2022-11-28T00:48:39;99793.69;;;10.33;100.00
41862;BME280;27537;57.134;-2.136;2022-11-28T00:51:09;99786.19;;;10.25;100.00
41862;BME280;27537;57.134;-2.136;2022-11-28T00:53:37;99791.22;;;10.12;100.00
41862;BME280;27537;57.134;-2.136;2022-11-28T00:56:06;99780.81;;;10.11;100.00
41862;BME280;27537;57.134;-2.136;2022-11-28T00:58:36;99785.75;;;9.99;100.00
41862;BME280;27537;57.134;-2.136;2022-11-28T01:01:17;99797.59;;;10.06;100.00
41862;BME280;27537;57.134;-2.136;2022-11-28T01:03:45;99783.38;;;10.12;100.00
41862;BME280;27537;57.134;-2.136;2022-11-28T01:06:12;99779.78;;;10.15;100.00
41862;BME280;27537;57.134;-2.136;2022-11-28T01:08:45;99761.22;;;10.02;100.00
41862;BME280;27537;57.134;-2.136;2022-11-28T01:11:12;99794.78;;;10.11;100.00
41862;BME280;27537;57.134;-2.136;2022-11-28T01:13:39;99785.69;;;10.18;100.00
41862;BME280;27537;57.134;-2.136;2022-11-28T01:16:07;99786.81;;;10.13;100.00
41862;BME280;27537;57.134;-2.136;2022-11-28T01:18:34;99794.59;;;10.14;100.00
41862;BME280;27537;57.134;-2.136;2022-11-28T01:21:01;99757.53;;;10.06;100.00
41862;BME280;27537;57.134;-2.136;2022-11-28T01:23:27;99774.97;;;10.23;100.00
41862;BME280;27537;57.134;-2.136;2022-11-28T01:25:54;99756.84;;;10.20;100.00
41862;BME280;27537;57.134;-2.136;2022-11-28T01:28:21;99799.38;;;10.41;100.00
41862;BME280;27537;57.134;-2.136;2022-11-28T01:30:48;99781.72;;;10.78;100.00
41862;BME280;27537;57.134;-2.136;2022-11-28T01:33:14;99787.59;;;10.66;100.00
41862;BME280;27537;57.134;-2.136;2022-11-28T01:35:41;99761.31;;;10.51;100.00
41862;BME280;27537;57.134;-2.136;2022-11-28T01:38:08;99779.28;;;10.75;100.00
41862;BME280;27537;57.134;-2.136;2022-11-28T01:40:34;99791.09;;;10.66;100.00
41862;BME280;27537;57.134;-2.136;2022-11-28T01:43:01;99776.91;;;10.70;100.00
41862;BME280;27537;57.134;-2.136;2022-11-28T01:45:33;99791.94;;;10.67;100.00
41862;BME280;27537;57.134;-2.136;2022-11-28T01:48:01;99797.53;;;10.43;100.00
41862;BME280;27537;57.134;-2.136;2022-11-28T01:50:30;99791.84;;;10.35;100.00
41862;BME280;27537;57.134;-2.136;2022-11-28T01:53:01;99793.59;;;10.52;100.00
41862;BME280;27537;57.134;-2.136;2022-11-28T01:55:32;99787.44;;;10.35;100.00
41862;BME280;27537;57.134;-2.136;2022-11-28T01:58:01;99786.88;;;10.29;100.00
41862;BME280;27537;57.134;-2.136;2022-11-28T02:00:27;99792.38;;;10.41;100.00
41862;BME280;27537;57.134;-2.136;2022-11-28T02:03:07;99803.59;;;10.26;100.00
41862;BME280;27537;57.134;-2.136;2022-11-28T02:05:36;99788.22;;;10.20;100.00
41862;BME280;27537;57.134;-2.136;2022-11-28T02:08:03;99794.59;;;10.14;100.00
41862;BME280;27537;57.134;-2.136;2022-11-28T02:13:37;99796.28;;;10.15;100.00
41862;BME280;27537;57.134;-2.136;2022-11-28T02:21:45;99802.69;;;10.27;100.00
41862;BME280;27537;57.134;-2.136;2022-11-28T02:40:49;99791.78;;;10.36;100.00
41862;BME280;27537;57.134;-2.136;2022-11-28T02:46:12;99795.28;;;10.35;100.00
41862;BME280;27537;57.134;-2.136;2022-11-28T02:48:54;99797.34;;;10.29;100.00
41862;BME280;27537;57.134;-2.136;2022-11-28T02:51:35;99804.16;;;10.33;100.00
41862;BME280;27537;57.134;-2.136;2022-11-28T02:54:05;99789.09;;;10.38;100.00
41862;BME280;27537;57.134;-2.136;2022-11-28T02:56:33;99793.50;;;10.53;100.00
41862;BME280;27537;57.134;-2.136;2022-11-28T02:59:00;99801.53;;;10.50;100.00
41862;BME280;27537;57.134;-2.136;2022-11-28T03:01:33;99804.41;;;10.61;100.00
41862;BME280;27537;57.134;-2.136;2022-11-28T03:04:05;99812.28;;;10.61;100.00
41862;BME280;27537;57.134;-2.136;2022-11-28T03:15:04;99792.09;;;10.63;100.00
41862;BME280;27537;57.134;-2.136;2022-11-28T03:20:40;99796.06;;;10.71;100.00
41862;BME280;27537;57.134;-2.136;2022-11-28T03:23:19;99796.91;;;10.55;100.00
41862;BME280;27537;57.134;-2.136;2022-11-28T03:28:58;99796.03;;;10.55;100.00
41862;BME280;27537;57.134;-2.136;2022-11-28T03:31:46;99796.94;;;10.71;100.00
41862;BME280;27537;57.134;-2.136;2022-11-28T03:34:17;99796.03;;;10.55;100.00
41862;BME280;27537;57.134;-2.136;2022-11-28T03:36:50;99789.91;;;10.38;100.00
41862;BME280;27537;57.134;-2.136;2022-11-28T03:39:22;99800.84;;;10.29;100.00
41862;BME280;27537;57.134;-2.136;2022-11-28T03:41:56;99804.63;;;10.23;100.00
41862;BME280;27537;57.134;-2.136;2022-11-28T03:44:28;99815.75;;;10.27;100.00
41862;BME280;27537;57.134;-2.136;2022-11-28T03:46:58;99812.97;;;10.48;100.00
41862;BME280;27537;57.134;-2.136;2022-11-28T03:49:31;99810.75;;;10.57;100.00
41862;BME280;27537;57.134;-2.136;2022-11-28T03:52:05;99798.22;;;10.47;100.00
41862;BME280;27537;57.134;-2.136;2022-11-28T03:57:43;99811.47;;;10.43;100.00
41862;BME280;27537;57.134;-2.136;2022-11-28T04:00:12;99810.00;;;10.55;100.00
41862;BME280;27537;57.134;-2.136;2022-11-28T04:07:57;99823.44;;;10.48;100.00
41862;BME280;27537;57.134;-2.136;2022-11-28T04:10:42;99819.16;;;10.47;100.00
41862;BME280;27537;57.134;-2.136;2022-11-28T04:18:51;99819.78;;;10.34;100.00
41862;BME280;27537;57.134;-2.136;2022-11-28T04:21:47;99819.47;;;10.40;100.00
41862;BME280;27537;57.134;-2.136;2022-11-28T04:24:27;99798.50;;;10.23;100.00
41862;BME280;27537;57.134;-2.136;2022-11-28T04:27:01;99832.69;;;10.37;100.00
41862;BME280;27537;57.134;-2.136;2022-11-28T04:29:38;99803.53;;;10.27;100.00
41862;BME280;27537;57.134;-2.136;2022-11-28T04:32:09;99841.41;;;10.38;100.00
41862;BME280;27537;57.134;-2.136;2022-11-28T04:34:39;99822.47;;;10.15;100.00
41862;BME280;27537;57.134;-2.136;2022-11-28T04:37:09;99828.84;;;10.10;100.00
41862;BME280;27537;57.134;-2.136;2022-11-28T04:39:42;99835.94;;;10.07;100.00
41862;BME280;27537;57.134;-2.136;2022-11-28T04:42:17;99814.47;;;10.01;100.00
41862;BME280;27537;57.134;-2.136;2022-11-28T04:44:47;99850.63;;;10.27;100.00
41862;BME280;27537;57.134;-2.136;2022-11-28T04:47:17;99838.91;;;10.17;100.00
41862;BME280;27537;57.134;-2.136;2022-11-28T04:49:44;99853.69;;;10.18;100.00
41862;BME280;27537;57.134;-2.136;2022-11-28T04:54:58;99855.06;;;10.08;100.00
41862;BME280;27537;57.134;-2.136;2022-11-28T04:57:30;99859.84;;;10.17;100.00
41862;BME280;27537;57.134;-2.136;2022-11-28T05:00:01;99866.47;;;10.24;100.00
41862;BME280;27537;57.134;-2.136;2022-11-28T05:02:30;99834.00;;;9.94;100.00
41862;BME280;27537;57.134;-2.136;2022-11-28T05:04:57;99859.19;;;9.95;100.00
41862;BME280;27537;57.134;-2.136;2022-11-28T05:07:25;99865.84;;;9.65;100.00
41862;BME280;27537;57.134;-2.136;2022-11-28T05:09:52;99859.06;;;9.61;100.00
41862;BME280;27537;57.134;-2.136;2022-11-28T05:12:18;99858.22;;;9.61;100.00
41862;BME280;27537;57.134;-2.136;2022-11-28T05:14:45;99863.13;;;9.49;100.00
41862;BME280;27537;57.134;-2.136;2022-11-28T05:17:12;99848.66;;;9.42;100.00
41862;BME280;27537;57.134;-2.136;2022-11-28T05:19:39;99847.88;;;9.40;100.00
41862;BME280;27537;57.134;-2.136;2022-11-28T05:22:05;99859.25;;;9.39;100.00
41862;BME280;27537;57.134;-2.136;2022-11-28T05:24:32;99871.94;;;9.47;100.00
41862;BME280;27537;57.134;-2.136;2022-11-28T05:26:59;99869.38;;;9.45;100.00
41862;BME280;27537;57.134;-2.136;2022-11-28T05:29:26;99871.09;;;9.65;100.00
41862;BME280;27537;57.134;-2.136;2022-11-28T05:31:53;99865.91;;;9.64;100.00
41862;BME280;27537;57.134;-2.136;2022-11-28T05:34:20;99884.66;;;9.55;100.00
41862;BME280;27537;57.134;-2.136;2022-11-28T05:36:53;99899.63;;;9.51;100.00
41862;BME280;27537;57.134;-2.136;2022-11-28T05:39:22;99888.19;;;9.35;100.00
41862;BME280;27537;57.134;-2.136;2022-11-28T05:41:54;99898.84;;;9.30;100.00
41862;BME280;27537;57.134;-2.136;2022-11-28T05:44:22;99879.41;;;9.17;100.00
41862;BME280;27537;57.134;-2.136;2022-11-28T05:46:52;99895.16;;;9.15;100.00
41862;BME280;27537;57.134;-2.136;2022-11-28T05:49:19;99904.97;;;9.10;100.00
41862;BME280;27537;57.134;-2.136;2022-11-28T05:51:50;99867.88;;;8.83;100.00
41862;BME280;27537;57.134;-2.136;2022-11-28T05:54:17;99912.25;;;9.03;100.00
41862;BME280;27537;57.134;-2.136;2022-11-28T05:56:44;99904.47;;;9.02;100.00
41862;BME280;27537;57.134;-2.136;2022-11-28T05:59:12;99919.50;;;8.97;100.00
41862;BME280;27537;57.134;-2.136;2022-11-28T06:01:39;99917.06;;;8.92;100.00
41862;BME280;27537;57.134;-2.136;2022-11-28T06:04:06;99919.91;;;8.87;100.00
41862;BME280;27537;57.134;-2.136;2022-11-28T06:06:33;99931.13;;;8.89;100.00
41862;BME280;27537;57.134;-2.136;2022-11-28T06:09:01;99917.78;;;8.96;100.00
41862;BME280;27537;57.134;-2.136;2022-11-28T06:11:30;99915.38;;;8.91;100.00
41862;BME280;27537;57.134;-2.136;2022-11-28T06:13:56;99927.19;;;9.00;100.00
41862;BME280;27537;57.134;-2.136;2022-11-28T06:16:26;99943.75;;;8.78;100.00
41862;BME280;27537;57.134;-2.136;2022-11-28T06:18:54;99939.66;;;8.93;100.00
41862;BME280;27537;57.134;-2.136;2022-11-28T06:21:21;99952.31;;;9.02;100.00
41862;BME280;27537;57.134;-2.136;2022-11-28T06:23:48;99958.53;;;9.00;100.00
41862;BME280;27537;57.134;-2.136;2022-11-28T06:26:18;99963.59;;;9.03;100.00
41862;BME280;27537;57.134;-2.136;2022-11-28T06:28:46;99952.72;;;8.72;100.00
41862;BME280;27537;57.134;-2.136;2022-11-28T06:31:24;99948.88;;;8.61;100.00
41862;BME280;27537;57.134;-2.136;2022-11-28T06:33:54;99955.91;;;8.59;100.00
41862;BME280;27537;57.134;-2.136;2022-11-28T06:36:21;99928.38;;;8.29;100.00
41862;BME280;27537;57.134;-2.136;2022-11-28T06:38:48;99955.91;;;8.36;100.00
41862;BME280;27537;57.134;-2.136;2022-11-28T06:41:17;99950.53;;;8.19;100.00
41862;BME280;27537;57.134;-2.136;2022-11-28T06:43:45;99959.63;;;8.09;100.00
41862;BME280;27537;57.134;-2.136;2022-11-28T06:46:13;99950.28;;;8.03;100.00
41862;BME280;27537;57.134;-2.136;2022-11-28T06:48:42;99956.53;;;8.21;100.00
41862;BME280;27537;57.134;-2.136;2022-11-28T06:51:09;99953.69;;;8.27;100.00
41862;BME280;27537;57.134;-2.136;2022-11-28T06:53:37;99966.41;;;8.35;100.00
41862;BME280;27537;57.134;-2.136;2022-11-28T06:56:05;99948.72;;;8.21;100.00
41862;BME280;27537;57.134;-2.136;2022-11-28T06:58:33;99969.34;;;8.27;100.00
41862;BME280;27537;57.134;-2.136;2022-11-28T07:01:10;99969.78;;;8.16;100.00
41862;BME280;27537;57.134;-2.136;2022-11-28T07:03:37;99964.91;;;8.07;100.00
41862;BME280;27537;57.134;-2.136;2022-11-28T07:06:05;99963.94;;;8.10;100.00
41862;BME280;27537;57.134;-2.136;2022-11-28T07:08:33;99979.41;;;8.14;100.00
41862;BME280;27537;57.134;-2.136;2022-11-28T07:13:38;99968.72;;;8.21;100.00
41862;BME280;27537;57.134;-2.136;2022-11-28T07:16:05;99943.88;;;7.90;100.00
41862;BME280;27537;57.134;-2.136;2022-11-28T07:18:33;99981.53;;;8.05;100.00
41862;BME280;27537;57.134;-2.136;2022-11-28T07:21:00;99991.06;;;8.06;100.00
41862;BME280;27537;57.134;-2.136;2022-11-28T07:23:27;99999.78;;;8.05;100.00
41862;BME280;27537;57.134;-2.136;2022-11-28T07:26:01;100005.59;;;8.11;100.00
41862;BME280;27537;57.134;-2.136;2022-11-28T07:28:29;99988.00;;;7.94;100.00
41862;BME280;27537;57.134;-2.136;2022-11-28T07:31:07;100004.38;;;7.98;100.00
41862;BME280;27537;57.134;-2.136;2022-11-28T07:33:37;100013.59;;;8.07;100.00
41862;BME280;27537;57.134;-2.136;2022-11-28T07:36:08;100008.84;;;7.94;100.00
41862;BME280;27537;57.134;-2.136;2022-11-28T07:38:36;100011.34;;;7.97;100.00
41862;BME280;27537;57.134;-2.136;2022-11-28T07:41:08;100003.69;;;7.93;100.00
41862;BME280;27537;57.134;-2.136;2022-11-28T07:43:35;100012.59;;;7.87;100.00
41862;BME280;27537;57.134;-2.136;2022-11-28T07:46:04;100021.25;;;7.88;100.00
41862;BME280;27537;57.134;-2.136;2022-11-28T07:48:32;100026.38;;;7.91;100.00
41862;BME280;27537;57.134;-2.136;2022-11-28T07:51:04;100034.28;;;7.88;100.00
41862;BME280;27537;57.134;-2.136;2022-11-28T07:53:31;99992.69;;;7.63;100.00
41862;BME280;27537;57.134;-2.136;2022-11-28T07:56:06;100043.50;;;7.74;100.00
41862;BME280;27537;57.134;-2.136;2022-11-28T07:58:34;100011.31;;;7.28;100.00
41862;BME280;27537;57.134;-2.136;2022-11-28T08:03:39;100031.25;;;7.53;100.00
41862;BME280;27537;57.134;-2.136;2022-11-28T08:06:06;100047.28;;;7.66;100.00
41862;BME280;27537;57.134;-2.136;2022-11-28T08:08:34;100045.88;;;7.57;100.00
41862;BME280;27537;57.134;-2.136;2022-11-28T08:11:02;100051.06;;;7.57;100.00
41862;BME280;27537;57.134;-2.136;2022-11-28T08:13:30;99983.16;;;7.14;100.00
41862;BME280;27537;57.134;-2.136;2022-11-28T08:15:56;100056.56;;;7.49;100.00
41862;BME280;27537;57.134;-2.136;2022-11-28T08:18:23;100055.53;;;7.53;100.00
41862;BME280;27537;57.134;-2.136;2022-11-28T08:20:50;100041.09;;;7.45;100.00
41862;BME280;27537;57.134;-2.136;2022-11-28T08:23:17;100053.69;;;7.57;100.00
41862;BME280;27537;57.134;-2.136;2022-11-28T08:25:43;100014.34;;;7.39;100.00
41862;BME280;27537;57.134;-2.136;2022-11-28T08:28:10;100023.94;;;7.39;100.00
41862;BME280;27537;57.134;-2.136;2022-11-28T08:30:37;100015.88;;;7.45;100.00
41862;BME280;27537;57.134;-2.136;2022-11-28T08:33:04;100024.63;;;7.44;100.00
41862;BME280;27537;57.134;-2.136;2022-11-28T08:35:31;100035.53;;;7.30;100.00
41862;BME280;27537;57.134;-2.136;2022-11-28T08:37:57;100034.00;;;7.25;100.00
41862;BME280;27537;57.134;-2.136;2022-11-28T08:40:27;100017.97;;;7.35;100.00
41862;BME280;27537;57.134;-2.136;2022-11-28T08:42:54;100062.75;;;7.70;100.00
41862;BME280;27537;57.134;-2.136;2022-11-28T08:45:21;100056.56;;;7.73;100.00
41862;BME280;27537;57.134;-2.136;2022-11-28T08:47:48;100016.81;;;7.44;100.00
41862;BME280;27537;57.134;-2.136;2022-11-28T08:50:14;100021.53;;;7.33;100.00
41862;BME280;27537;57.134;-2.136;2022-11-28T08:52:41;100068.34;;;7.59;100.00
41862;BME280;27537;57.134;-2.136;2022-11-28T08:55:08;100025.63;;;7.40;100.00
41862;BME280;27537;57.134;-2.136;2022-11-28T08:57:35;100034.06;;;7.47;100.00
41862;BME280;27537;57.134;-2.136;2022-11-28T09:00:02;100053.34;;;7.66;100.00
41862;BME280;27537;57.134;-2.136;2022-11-28T09:02:29;100029.19;;;7.61;100.00
41862;BME280;27537;57.134;-2.136;2022-11-28T09:04:56;100059.91;;;7.76;100.00
41862;BME280;27537;57.134;-2.136;2022-11-28T09:07:23;100045.84;;;7.80;100.00
41862;BME280;27537;57.134;-2.136;2022-11-28T09:09:49;100058.47;;;7.91;100.00
41862;BME280;27537;57.134;-2.136;2022-11-28T09:12:16;100084.22;;;8.24;100.00
41862;BME280;27537;57.134;-2.136;2022-11-28T09:14:43;100084.56;;;8.15;100.00
41862;BME280;27537;57.134;-2.136;2022-11-28T09:17:10;100045.25;;;7.97;100.00
41862;BME280;27537;57.134;-2.136;2022-11-28T09:19:37;100099.50;;;8.33;100.00
41862;BME280;27537;57.134;-2.136;2022-11-28T09:22:04;100076.78;;;8.13;100.00
41862;BME280;27537;57.134;-2.136;2022-11-28T09:24:31;100052.16;;;7.98;100.00
41862;BME280;27537;57.134;-2.136;2022-11-28T09:26:57;100112.53;;;8.33;100.00
41862;BME280;27537;57.134;-2.136;2022-11-28T09:29:25;100112.53;;;8.33;100.00
41862;BME280;27537;57.134;-2.136;2022-11-28T09:31:52;100086.09;;;7.97;100.00
41862;BME280;27537;57.134;-2.136;2022-11-28T09:34:18;100111.63;;;8.11;100.00
41862;BME280;27537;57.134;-2.136;2022-11-28T09:36:45;100142.22;;;8.31;100.00
41862;BME280;27537;57.134;-2.136;2022-11-28T09:39:12;100122.75;;;8.16;100.00
41862;BME280;27537;57.134;-2.136;2022-11-28T09:46:54;100118.97;;;8.48;100.00
41862;BME280;27537;57.134;-2.136;2022-11-28T09:49:36;100087.84;;;8.44;100.00
41862;BME280;27537;57.134;-2.136;2022-11-28T09:55:13;100126.47;;;8.78;100.00
41862;BME280;27537;57.134;-2.136;2022-11-28T09:57:48;100082.03;;;8.59;100.00
41862;BME280;27537;57.134;-2.136;2022-11-28T10:00:23;100142.09;;;8.80;100.00
41862;BME280;27537;57.134;-2.136;2022-11-28T10:03:12;100120.97;;;8.86;100.00
41862;BME280;27537;57.134;-2.136;2022-11-28T10:05:55;100144.59;;;9.05;100.00
41862;BME280;27537;57.134;-2.136;2022-11-28T10:20:02;100147.47;;;9.19;100.00
41862;BME280;27537;57.134;-2.136;2022-11-28T10:22:38;100147.41;;;9.21;100.00
41862;BME280;27537;57.134;-2.136;2022-11-28T10:25:15;100134.66;;;9.13;100.00
41862;BME280;27537;57.134;-2.136;2022-11-28T10:27:42;100080.72;;;8.91;100.00
41862;BME280;27537;57.134;-2.136;2022-11-28T10:30:30;100153.38;;;9.45;100.00
41862;BME280;27537;57.134;-2.136;2022-11-28T10:33:10;100103.06;;;9.19;100.00
41862;BME280;27537;57.134;-2.136;2022-11-28T10:35:49;100098.13;;;9.34;100.00
41862;BME280;27537;57.134;-2.136;2022-11-28T10:38:19;100126.44;;;9.43;100.00
41862;BME280;27537;57.134;-2.136;2022-11-28T10:44:17;100135.66;;;9.72;100.00
41862;BME280;27537;57.134;-2.136;2022-11-28T10:49:31;100117.50;;;9.69;100.00
41862;BME280;27537;57.134;-2.136;2022-11-28T10:52:16;100151.31;;;9.93;100.00
41862;BME280;27537;57.134;-2.136;2022-11-28T10:57:51;100148.59;;;10.15;100.00
41862;BME280;27537;57.134;-2.136;2022-11-28T11:00:21;100154.88;;;10.11;100.00
41862;BME280;27537;57.134;-2.136;2022-11-28T11:02:56;100148.72;;;10.12;100.00
41862;BME280;27537;57.134;-2.136;2022-11-28T11:07:57;100157.28;;;10.15;100.00
41862;BME280;27537;57.134;-2.136;2022-11-28T11:13:14;100132.59;;;10.02;100.00
41862;BME280;27537;57.134;-2.136;2022-11-28T11:15:42;100112.47;;;10.04;100.00
41862;BME280;27537;57.134;-2.136;2022-11-28T11:18:24;100171.97;;;10.38;100.00
41862;BME280;27537;57.134;-2.136;2022-11-28T11:20:51;100169.34;;;10.38;100.00
41862;BME280;27537;57.134;-2.136;2022-11-28T11:23:20;100184.75;;;10.44;100.00
41862;BME280;27537;57.134;-2.136;2022-11-28T11:25:54;100153.91;;;10.32;100.00
41862;BME280;27537;57.134;-2.136;2022-11-28T11:28:43;100182.47;;;10.57;100.00
41862;BME280;27537;57.134;-2.136;2022-11-28T11:33:52;100191.16;;;10.77;100.00
41862;BME280;27537;57.134;-2.136;2022-11-28T11:36:32;100186.88;;;10.93;100.00
41862;BME280;27537;57.134;-2.136;2022-11-28T11:41:38;100164.50;;;10.86;100.00
41862;BME280;27537;57.134;-2.136;2022-11-28T11:47:05;100150.66;;;10.84;100.00
41862;BME280;27537;57.134;-2.136;2022-11-28T11:52:23;100147.47;;;10.77;100.00
41862;BME280;27537;57.134;-2.136;2022-11-28T11:57:37;100209.81;;;11.25;100.00
41862;BME280;27537;57.134;-2.136;2022-11-28T12:05:15;100198.47;;;11.07;100.00
41862;BME280;27537;57.134;-2.136;2022-11-28T12:10:23;100211.22;;;11.32;100.00
41862;BME280;27537;57.134;-2.136;2022-11-28T12:12:52;100185.91;;;11.13;100.00
41862;BME280;27537;57.134;-2.136;2022-11-28T12:15:45;100218.47;;;11.44;100.00
41862;BME280;27537;57.134;-2.136;2022-11-28T12:29:21;100197.50;;;11.27;100.00
41862;BME280;27537;57.134;-2.136;2022-11-28T13:01:13;100233.13;;;11.12;100.00
41862;BME280;27537;57.134;-2.136;2022-11-28T13:17:06;100292.44;;;11.68;100.00
41862;BME280;27537;57.134;-2.136;2022-11-28T13:22:24;100303.56;;;11.73;100.00
41862;BME280;27537;57.134;-2.136;2022-11-28T13:30:27;100316.50;;;11.59;100.00
41862;BME280;27537;57.134;-2.136;2022-11-28T13:35:50;100318.88;;;11.46;100.00
41862;BME280;27537;57.134;-2.136;2022-11-28T13:38:25;100318.09;;;11.44;100.00
41862;BME280;27537;57.134;-2.136;2022-11-28T13:41:09;100321.22;;;11.33;100.00
41862;BME280;27537;57.134;-2.136;2022-11-28T13:44:06;100297.53;;;11.17;100.00
41862;BME280;27537;57.134;-2.136;2022-11-28T13:46:42;100314.72;;;11.42;100.00
41862;BME280;27537;57.134;-2.136;2022-11-28T13:49:23;100329.72;;;11.38;100.00
41862;BME280;27537;57.134;-2.136;2022-11-28T13:54:49;100329.75;;;11.19;100.00
41862;BME280;27537;57.134;-2.136;2022-11-28T13:57:29;100331.16;;;11.27;100.00
41862;BME280;27537;57.134;-2.136;2022-11-28T14:00:20;100339.72;;;11.30;100.00
41862;BME280;27537;57.134;-2.136;2022-11-28T14:02:55;100346.50;;;11.34;100.00
41862;BME280;27537;57.134;-2.136;2022-11-28T14:05:37;100346.16;;;11.23;100.00
41862;BME280;27537;57.134;-2.136;2022-11-28T14:08:07;100337.72;;;11.16;100.00
41862;BME280;27537;57.134;-2.136;2022-11-28T14:13:36;100341.69;;;11.06;100.00
41862;BME280;27537;57.134;-2.136;2022-11-28T14:19:21;100352.66;;;10.95;100.00
41862;BME280;27537;57.134;-2.136;2022-11-28T14:27:28;100360.28;;;10.81;100.00
41862;BME280;27537;57.134;-2.136;2022-11-28T14:29:57;100388.97;;;10.84;100.00
41862;BME280;27537;57.134;-2.136;2022-11-28T14:32:39;100382.31;;;10.77;100.00
41862;BME280;27537;57.134;-2.136;2022-11-28T14:38:42;100387.16;;;10.66;100.00
41862;BME280;27537;57.134;-2.136;2022-11-28T14:41:09;100360.00;;;10.27;100.00
41862;BME280;27537;57.134;-2.136;2022-11-28T14:43:44;100389.91;;;10.42;100.00
41862;BME280;27537;57.134;-2.136;2022-11-28T14:56:49;100411.38;;;10.07;100.00
41862;BME280;27537;57.134;-2.136;2022-11-28T14:59:29;100365.06;;;9.67;100.00
41862;BME280;27537;57.134;-2.136;2022-11-28T15:16:14;100412.13;;;9.43;100.00
41862;BME280;27537;57.134;-2.136;2022-11-28T15:18:47;100441.28;;;9.56;100.00
41862;BME280;27537;57.134;-2.136;2022-11-28T15:21:16;100448.25;;;9.56;100.00
41862;BME280;27537;57.134;-2.136;2022-11-28T15:23:43;100421.50;;;9.25;100.00
41862;BME280;27537;57.134;-2.136;2022-11-28T15:26:26;100450.31;;;9.47;100.00
41862;BME280;27537;57.134;-2.136;2022-11-28T15:29:25;100463.03;;;9.33;100.00
41862;BME280;27537;57.134;-2.136;2022-11-28T15:31:53;100462.81;;;9.16;100.00
41862;BME280;27537;57.134;-2.136;2022-11-28T15:34:29;100418.19;;;8.73;100.00
41862;BME280;27537;57.134;-2.136;2022-11-28T15:36:59;100480.66;;;9.03;100.00
41862;BME280;27537;57.134;-2.136;2022-11-28T15:39:30;100435.53;;;8.74;100.00
41862;BME280;27537;57.134;-2.136;2022-11-28T15:42:02;100450.50;;;8.69;100.00
41862;BME280;27537;57.134;-2.136;2022-11-28T15:44:30;100447.31;;;8.61;100.00
41862;BME280;27537;57.134;-2.136;2022-11-28T15:46:57;100455.19;;;8.59;100.00
41862;BME280;27537;57.134;-2.136;2022-11-28T15:49:30;100497.00;;;8.83;100.00
41862;BME280;27537;57.134;-2.136;2022-11-28T15:52:01;100498.50;;;8.90;100.00
41862;BME280;27537;57.134;-2.136;2022-11-28T15:54:38;100502.66;;;8.70;100.00
41862;BME280;27537;57.134;-2.136;2022-11-28T15:57:25;100509.03;;;8.62;100.00
41862;BME280;27537;57.134;-2.136;2022-11-28T15:59:54;100468.16;;;8.34;100.00
41862;BME280;27537;57.134;-2.136;2022-11-28T16:02:28;100501.50;;;8.52;100.00
41862;BME280;27537;57.134;-2.136;2022-11-28T16:05:05;100485.59;;;8.32;100.00
41862;BME280;27537;57.134;-2.136;2022-11-28T16:07:37;100518.00;;;8.25;100.00
41862;BME280;27537;57.134;-2.136;2022-11-28T16:12:42;100488.84;;;8.12;100.00
41862;BME280;27537;57.134;-2.136;2022-11-28T16:15:16;100532.59;;;8.30;100.00
41862;BME280;27537;57.134;-2.136;2022-11-28T16:17:43;100485.81;;;7.97;100.00
41862;BME280;27537;57.134;-2.136;2022-11-28T16:22:56;100497.81;;;8.03;100.00
41862;BME280;27537;57.134;-2.136;2022-11-28T16:25:25;100527.25;;;8.35;100.00
41862;BME280;27537;57.134;-2.136;2022-11-28T16:27:53;100464.38;;;7.88;100.00
41862;BME280;27537;57.134;-2.136;2022-11-28T16:30:42;100521.25;;;8.05;100.00
41862;BME280;27537;57.134;-2.136;2022-11-28T16:33:36;100529.03;;;8.06;100.00
41862;BME280;27537;57.134;-2.136;2022-11-28T16:38:46;100506.28;;;7.82;100.00
41862;BME280;27537;57.134;-2.136;2022-11-28T16:41:23;100510.03;;;7.73;100.00
41862;BME280;27537;57.134;-2.136;2022-11-28T16:43:57;100532.44;;;7.78;100.00
41862;BME280;27537;57.134;-2.136;2022-11-28T16:46:33;100512.94;;;7.62;100.00
41862;BME280;27537;57.134;-2.136;2022-11-28T16:49:01;100495.94;;;7.49;100.00
41862;BME280;27537;57.134;-2.136;2022-11-28T16:51:31;100506.19;;;7.55;100.00
41862;BME280;27537;57.134;-2.136;2022-11-28T16:54:19;100548.88;;;7.80;100.00
41862;BME280;27537;57.134;-2.136;2022-11-28T16:56:46;100546.31;;;7.79;100.00